createdAt,value
2017-02-16T00:00:52.171Z,0
2017-02-16T00:01:51.206Z,0
2017-02-16T00:02:50.803Z,0
2017-02-16T00:03:51.219Z,0
2017-02-16T00:04:50.824Z,0
2017-02-16T00:05:51.437Z,0
2017-02-16T00:06:51.155Z,0
2017-02-16T00:07:51.169Z,0
2017-02-16T00:08:51.113Z,0
2017-02-16T00:09:50.288Z,0
2017-02-16T00:10:50.792Z,0
2017-02-16T00:11:50.645Z,0
2017-02-16T00:12:50.641Z,0
2017-02-16T00:13:51.002Z,0
2017-02-16T00:14:50.538Z,0
2017-02-16T00:15:50.294Z,0
2017-02-16T00:16:50.197Z,0
2017-02-16T00:17:50.650Z,0
2017-02-16T00:18:50.575Z,0
2017-02-16T00:19:50.103Z,0
2017-02-16T00:20:50.119Z,0
2017-02-16T00:21:50.955Z,0
2017-02-16T00:22:50.838Z,0
2017-02-16T00:23:50.555Z,0
2017-02-16T00:24:50.869Z,0
2017-02-16T00:25:50.810Z,0
2017-02-16T00:26:50.538Z,0
2017-02-16T00:27:50.936Z,0
2017-02-16T00:28:50.355Z,0
2017-02-16T00:29:50.737Z,0
2017-02-16T00:30:50.741Z,0
2017-02-16T00:31:50.291Z,0
2017-02-16T00:32:50.817Z,0
2017-02-16T00:33:50.724Z,0
2017-02-16T00:34:50.659Z,0
2017-02-16T00:35:50.257Z,0
2017-02-16T00:36:49.883Z,0
2017-02-16T00:37:50.011Z,0
2017-02-16T00:38:50.599Z,0
2017-02-16T00:39:50.699Z,0
2017-02-16T00:40:50.427Z,0
2017-02-16T00:41:50.804Z,0
2017-02-16T00:42:51.161Z,0
2017-02-16T00:43:51.734Z,0
2017-02-16T00:44:51.409Z,0
2017-02-16T00:45:50.901Z,0
2017-02-16T00:46:51.323Z,0
2017-02-16T00:47:51.003Z,0
2017-02-16T00:48:50.043Z,0
2017-02-16T00:49:51.043Z,0
2017-02-16T00:50:50.334Z,0
2017-02-16T00:51:49.553Z,0
2017-02-16T00:52:50.343Z,0
2017-02-16T00:53:50.308Z,0
2017-02-16T00:54:49.888Z,0
2017-02-16T00:55:50.278Z,0
2017-02-16T00:56:50.278Z,0
2017-02-16T00:57:50.248Z,0
2017-02-16T00:58:50.237Z,0
2017-02-16T00:59:50.215Z,0
2017-02-16T01:00:50.198Z,0
2017-02-16T01:01:50.198Z,0
2017-02-16T01:02:50.165Z,0
2017-02-16T01:03:50.183Z,0
2017-02-16T01:04:50.119Z,0
2017-02-16T01:05:50.117Z,0
2017-02-16T01:06:50.168Z,0
2017-02-16T01:07:50.087Z,0
2017-02-16T01:08:50.059Z,0
2017-02-16T01:09:50.080Z,0
2017-02-16T01:10:49.648Z,0
2017-02-16T01:11:50.027Z,0
2017-02-16T01:12:50.007Z,0
2017-02-16T01:13:50.019Z,0
2017-02-16T01:14:49.566Z,0
2017-02-16T01:15:49.968Z,0
2017-02-16T01:16:49.946Z,0
2017-02-16T01:17:49.945Z,0
2017-02-16T01:18:49.506Z,0
2017-02-16T01:19:49.925Z,0
2017-02-16T01:20:49.503Z,0
2017-02-16T01:21:49.483Z,0
2017-02-16T01:22:49.862Z,0
2017-02-16T01:23:49.435Z,0
2017-02-16T01:24:49.817Z,0
2017-02-16T01:25:49.812Z,0
2017-02-16T01:26:49.798Z,0
2017-02-16T01:27:49.838Z,0
2017-02-16T01:28:49.744Z,0
2017-02-16T01:29:49.748Z,0
2017-02-16T01:30:49.764Z,0
2017-02-16T01:31:49.716Z,0
2017-02-16T01:32:49.707Z,0
2017-02-16T01:33:49.691Z,0
2017-02-16T01:34:49.658Z,0
2017-02-16T01:35:49.664Z,0
2017-02-16T01:36:49.639Z,0
2017-02-16T01:37:49.616Z,0
2017-02-16T01:38:49.204Z,0
2017-02-16T01:39:49.573Z,0
2017-02-16T01:40:49.581Z,0
2017-02-16T01:41:49.161Z,0
2017-02-16T01:42:49.537Z,0
2017-02-16T01:43:49.524Z,0
2017-02-16T01:44:49.531Z,0
2017-02-16T01:45:49.515Z,0
2017-02-16T01:46:49.501Z,0
2017-02-16T01:47:49.078Z,0
2017-02-16T01:48:49.467Z,0
2017-02-16T01:49:49.432Z,0
2017-02-16T01:50:49.031Z,0
2017-02-16T01:51:49.452Z,0
2017-02-16T01:52:49.395Z,0
2017-02-16T01:53:48.976Z,0
2017-02-16T01:54:49.366Z,0
2017-02-16T01:55:49.350Z,0
2017-02-16T01:56:49.340Z,0
2017-02-16T01:57:49.302Z,0
2017-02-16T01:58:49.290Z,0
2017-02-16T01:59:49.283Z,0
2017-02-16T02:00:49.263Z,0
2017-02-16T02:01:49.266Z,0
2017-02-16T02:02:49.236Z,0
2017-02-16T02:03:49.221Z,0
2017-02-16T02:04:48.772Z,0
2017-02-16T02:05:49.190Z,0
2017-02-16T02:06:49.163Z,0
2017-02-16T02:07:49.151Z,0
2017-02-16T02:08:49.204Z,0
2017-02-16T02:09:49.115Z,0
2017-02-16T02:10:49.120Z,0
2017-02-16T02:11:49.080Z,0
2017-02-16T02:12:49.090Z,0
2017-02-16T02:13:49.053Z,0
2017-02-16T02:14:49.037Z,0
2017-02-16T02:15:49.036Z,0
2017-02-16T02:16:49.018Z,0
2017-02-16T02:17:49.005Z,0
2017-02-16T02:18:49.003Z,0
2017-02-16T02:19:48.970Z,0
2017-02-16T02:20:48.948Z,0
2017-02-16T02:21:48.937Z,0
2017-02-16T02:22:48.917Z,0
2017-02-16T02:23:48.525Z,0
2017-02-16T02:24:48.895Z,0
2017-02-16T02:25:48.872Z,0
2017-02-16T02:26:48.859Z,0
2017-02-16T02:27:48.843Z,0
2017-02-16T02:28:48.424Z,0
2017-02-16T02:29:48.817Z,0
2017-02-16T02:30:48.805Z,0
2017-02-16T02:31:48.775Z,0
2017-02-16T02:32:48.745Z,0
2017-02-16T02:33:48.760Z,0
2017-02-16T02:34:48.731Z,0
2017-02-16T02:35:48.741Z,0
2017-02-16T02:36:48.307Z,0
2017-02-16T02:37:48.689Z,0
2017-02-16T02:38:48.667Z,0
2017-02-16T02:39:48.644Z,0
2017-02-16T02:40:48.619Z,0
2017-02-16T02:41:48.221Z,0
2017-02-16T02:42:48.177Z,0
2017-02-16T02:43:48.594Z,0
2017-02-16T02:44:48.549Z,0
2017-02-16T02:45:48.556Z,0
2017-02-16T02:46:48.536Z,0
2017-02-16T02:47:48.512Z,0
2017-02-16T02:48:48.502Z,0
2017-02-16T02:49:48.504Z,0
2017-02-16T02:50:48.456Z,0
2017-02-16T02:51:57.066Z,0
2017-02-16T02:52:48.468Z,0
2017-02-16T02:53:48.458Z,0
2017-02-16T02:54:48.431Z,0
2017-02-16T02:55:48.027Z,0
2017-02-16T02:56:48.014Z,0
2017-02-16T02:57:48.401Z,0
2017-02-16T02:58:48.415Z,0
2017-02-16T02:59:48.354Z,0
2017-02-16T03:00:48.320Z,0
2017-02-16T03:01:48.334Z,0
2017-02-16T03:02:47.926Z,0
2017-02-16T03:03:48.288Z,0
2017-02-16T03:04:48.282Z,0
2017-02-16T03:05:48.283Z,0
2017-02-16T03:06:48.237Z,0
2017-02-16T03:07:48.273Z,0
2017-02-16T03:08:48.227Z,0
2017-02-16T03:09:48.193Z,0
2017-02-16T03:10:48.197Z,0
2017-02-16T03:11:48.170Z,0
2017-02-16T03:12:48.168Z,0
2017-02-16T03:13:47.732Z,0
2017-02-16T03:14:48.111Z,0
2017-02-16T03:15:48.100Z,0
2017-02-16T03:16:48.092Z,0
2017-02-16T03:17:48.057Z,0
2017-02-16T03:18:48.036Z,0
2017-02-16T03:19:48.057Z,0
2017-02-16T03:20:47.618Z,0
2017-02-16T03:21:48.028Z,0
2017-02-16T03:22:47.998Z,0
2017-02-16T03:23:47.952Z,0
2017-02-16T03:24:47.929Z,0
2017-02-16T03:25:47.936Z,0
2017-02-16T03:26:47.884Z,0
2017-02-16T03:27:47.906Z,0
2017-02-16T03:28:47.868Z,0
2017-02-16T03:29:47.858Z,0
2017-02-16T03:30:47.837Z,0
2017-02-16T03:31:47.823Z,0
2017-02-16T03:32:47.809Z,0
2017-02-16T03:33:47.794Z,0
2017-02-16T03:34:47.773Z,0
2017-02-16T03:35:47.767Z,0
2017-02-16T03:36:47.730Z,0
2017-02-16T03:37:47.746Z,0
2017-02-16T03:38:47.709Z,0
2017-02-16T03:39:47.337Z,0
2017-02-16T03:40:47.695Z,0
2017-02-16T03:41:47.651Z,0
2017-02-16T03:42:47.634Z,0
2017-02-16T03:43:47.612Z,0
2017-02-16T03:44:47.613Z,0
2017-02-16T03:45:47.590Z,0
2017-02-16T03:46:47.554Z,0
2017-02-16T03:47:47.561Z,0
2017-02-16T03:48:47.529Z,0
2017-02-16T03:49:47.118Z,0
2017-02-16T03:50:47.513Z,0
2017-02-16T03:51:47.486Z,0
2017-02-16T03:52:47.477Z,0
2017-02-16T03:53:47.492Z,0
2017-02-16T03:54:47.022Z,0
2017-02-16T03:55:47.452Z,0
2017-02-16T03:56:47.413Z,0
2017-02-16T03:57:46.979Z,0
2017-02-16T03:58:47.361Z,0
2017-02-16T03:59:47.352Z,0
2017-02-16T04:00:47.349Z,0
2017-02-16T04:01:47.341Z,0
2017-02-16T04:02:47.306Z,0
2017-02-16T04:03:47.300Z,0
2017-02-16T04:04:47.287Z,0
2017-02-16T04:05:47.260Z,0
2017-02-16T04:06:47.252Z,0
2017-02-16T04:07:47.227Z,0
2017-02-16T04:08:47.202Z,0
2017-02-16T04:09:46.775Z,0
2017-02-16T04:10:47.180Z,0
2017-02-16T04:11:47.121Z,0
2017-02-16T04:12:47.157Z,0
2017-02-16T04:13:46.714Z,0
2017-02-16T04:14:46.715Z,0
2017-02-16T04:15:47.097Z,0
2017-02-16T04:16:47.080Z,0
2017-02-16T04:17:47.036Z,0
2017-02-16T04:18:47.037Z,0
2017-02-16T04:19:47.012Z,0
2017-02-16T04:20:46.685Z,0
2017-02-16T04:21:46.988Z,0
2017-02-16T04:22:46.968Z,0
2017-02-16T04:23:46.931Z,0
2017-02-16T04:24:46.532Z,0
2017-02-16T04:25:46.907Z,0
2017-02-16T04:26:46.914Z,0
2017-02-16T04:27:46.873Z,0
2017-02-16T04:28:46.870Z,0
2017-02-16T04:29:46.863Z,0
2017-02-16T04:30:46.809Z,0
2017-02-16T04:31:46.821Z,0
2017-02-16T04:32:46.776Z,0
2017-02-16T04:33:46.812Z,0
2017-02-16T04:34:46.747Z,0
2017-02-16T04:35:46.731Z,0
2017-02-16T04:36:46.710Z,0
2017-02-16T04:37:46.715Z,0
2017-02-16T04:38:46.685Z,0
2017-02-16T04:39:46.685Z,0
2017-02-16T04:40:46.639Z,0
2017-02-16T04:41:46.626Z,0
2017-02-16T04:42:46.618Z,0
2017-02-16T04:43:46.614Z,0
2017-02-16T04:44:46.607Z,0
2017-02-16T04:45:46.586Z,0
2017-02-16T04:46:46.535Z,0
2017-02-16T04:47:46.525Z,0
2017-02-16T04:48:46.524Z,0
2017-02-16T04:49:46.493Z,0
2017-02-16T04:50:46.498Z,0
2017-02-16T04:51:46.455Z,0
2017-02-16T04:52:46.453Z,0
2017-02-16T04:53:46.467Z,0
2017-02-16T04:54:46.399Z,0
2017-02-16T04:55:46.000Z,0
2017-02-16T04:56:46.380Z,0
2017-02-16T04:57:45.971Z,0
2017-02-16T04:58:46.335Z,0
2017-02-16T04:59:46.358Z,0
2017-02-16T05:00:46.317Z,0
2017-02-16T05:01:46.302Z,0
2017-02-16T05:02:46.265Z,0
2017-02-16T05:03:45.843Z,0
2017-02-16T05:04:46.233Z,0
2017-02-16T05:05:46.241Z,0
2017-02-16T05:06:46.222Z,0
2017-02-16T05:07:46.202Z,0
2017-02-16T05:08:45.756Z,0
2017-02-16T05:09:46.167Z,0
2017-02-16T05:10:46.145Z,0
2017-02-16T05:11:45.704Z,0
2017-02-16T05:12:46.114Z,0
2017-02-16T05:13:46.114Z,0
2017-02-16T05:14:45.656Z,0
2017-02-16T05:15:45.647Z,0
2017-02-16T05:16:46.047Z,0
2017-02-16T05:17:45.631Z,0
2017-02-16T05:18:46.013Z,0
2017-02-16T05:19:45.989Z,0
2017-02-16T05:20:45.980Z,0
2017-02-16T05:21:45.568Z,0
2017-02-16T05:22:45.546Z,0
2017-02-16T05:23:45.907Z,0
2017-02-16T05:24:45.935Z,0
2017-02-16T05:25:45.485Z,0
2017-02-16T05:26:45.854Z,0
2017-02-16T05:27:45.466Z,0
2017-02-16T05:28:45.399Z,0
2017-02-16T05:29:45.805Z,0
2017-02-16T05:30:45.777Z,0
2017-02-16T05:31:45.793Z,0
2017-02-16T05:32:45.747Z,0
2017-02-16T05:33:45.740Z,0
2017-02-16T05:34:44.910Z,0
2017-02-16T05:35:45.693Z,0
2017-02-16T05:36:45.693Z,0
2017-02-16T05:37:45.652Z,0
2017-02-16T05:38:45.258Z,0
2017-02-16T05:39:45.620Z,0
2017-02-16T05:40:45.638Z,0
2017-02-16T05:41:45.617Z,0
2017-02-16T05:42:45.574Z,0
2017-02-16T05:43:45.171Z,0
2017-02-16T05:44:45.559Z,0
2017-02-16T05:45:45.549Z,0
2017-02-16T05:46:45.127Z,0
2017-02-16T05:47:45.503Z,0
2017-02-16T05:48:45.491Z,0
2017-02-16T05:49:45.471Z,0
2017-02-16T05:50:45.062Z,0
2017-02-16T05:51:45.059Z,0
2017-02-16T05:52:44.996Z,0
2017-02-16T05:53:45.394Z,0
2017-02-16T05:54:45.398Z,0
2017-02-16T05:55:45.382Z,0
2017-02-16T05:56:45.336Z,0
2017-02-16T05:57:45.326Z,0
2017-02-16T05:58:44.505Z,0
2017-02-16T05:59:45.306Z,0
2017-02-16T06:00:45.293Z,0
2017-02-16T06:01:45.232Z,0
2017-02-16T06:02:44.842Z,0
2017-02-16T06:03:44.456Z,0
2017-02-16T06:04:45.223Z,0
2017-02-16T06:05:44.411Z,0
2017-02-16T06:06:45.174Z,0
2017-02-16T06:07:45.140Z,0
2017-02-16T06:08:45.148Z,0
2017-02-16T06:09:45.088Z,0
2017-02-16T06:10:45.128Z,0
2017-02-16T06:11:44.676Z,0
2017-02-16T06:12:45.048Z,0
2017-02-16T06:13:45.066Z,0
2017-02-16T06:14:45.038Z,5
2017-02-16T06:15:45.007Z,5
2017-02-16T06:16:44.610Z,5
2017-02-16T06:17:45.010Z,5
2017-02-16T06:18:44.972Z,5
2017-02-16T06:19:44.964Z,5
2017-02-16T06:20:44.956Z,5
2017-02-16T06:21:44.501Z,10
2017-02-16T06:22:44.889Z,10
2017-02-16T06:23:44.869Z,10
2017-02-16T06:24:44.468Z,10
2017-02-16T06:25:44.042Z,10
2017-02-16T06:26:44.448Z,15
2017-02-16T06:27:44.417Z,15
2017-02-16T06:28:44.810Z,15
2017-02-16T06:29:44.778Z,15
2017-02-16T06:30:44.352Z,15
2017-02-16T06:31:44.758Z,20
2017-02-16T06:32:44.744Z,20
2017-02-16T06:33:44.707Z,20
2017-02-16T06:34:44.302Z,25
2017-02-16T06:35:44.666Z,25
2017-02-16T06:36:44.643Z,25
2017-02-16T06:37:43.844Z,25
2017-02-16T06:38:44.244Z,30
2017-02-16T06:39:44.612Z,30
2017-02-16T06:40:44.597Z,30
2017-02-16T06:41:44.584Z,35
2017-02-16T06:42:44.171Z,35
2017-02-16T06:43:44.540Z,35
2017-02-16T06:44:44.530Z,40
2017-02-16T06:45:44.528Z,40
2017-02-16T06:46:44.099Z,40
2017-02-16T06:47:44.487Z,40
2017-02-16T06:48:44.468Z,40
2017-02-16T06:49:44.420Z,45
2017-02-16T06:50:44.429Z,45
2017-02-16T06:51:44.433Z,45
2017-02-16T06:52:44.366Z,45
2017-02-16T06:53:43.979Z,45
2017-02-16T06:54:44.373Z,45
2017-02-16T06:55:44.343Z,45
2017-02-16T06:56:43.943Z,50
2017-02-16T06:57:44.311Z,50
2017-02-16T06:58:44.285Z,50
2017-02-16T06:59:44.246Z,50
2017-02-16T07:00:44.229Z,50
2017-02-16T07:01:43.852Z,50
2017-02-16T07:02:44.198Z,55
2017-02-16T07:03:44.237Z,55
2017-02-16T07:04:44.197Z,55
2017-02-16T07:05:44.199Z,55
2017-02-16T07:06:43.349Z,55
2017-02-16T07:07:43.730Z,60
2017-02-16T07:08:43.733Z,60
2017-02-16T07:09:43.715Z,60
2017-02-16T07:10:43.684Z,60
2017-02-16T07:11:43.674Z,60
2017-02-16T07:12:43.684Z,65
2017-02-16T07:13:44.028Z,65
2017-02-16T07:14:43.668Z,65
2017-02-16T07:15:44.011Z,65
2017-02-16T07:16:43.588Z,65
2017-02-16T07:17:43.992Z,70
2017-02-16T07:18:43.964Z,70
2017-02-16T07:19:43.954Z,70
2017-02-16T07:20:43.941Z,70
2017-02-16T07:21:43.929Z,70
2017-02-16T07:22:43.900Z,70
2017-02-16T07:23:43.897Z,75
2017-02-16T07:24:43.841Z,75
2017-02-16T07:25:43.841Z,75
2017-02-16T07:26:43.413Z,75
2017-02-16T07:27:43.809Z,75
2017-02-16T07:28:43.793Z,75
2017-02-16T07:29:43.781Z,80
2017-02-16T07:30:43.352Z,80
2017-02-16T07:31:43.742Z,80
2017-02-16T07:32:43.329Z,80
2017-02-16T07:33:43.697Z,80
2017-02-16T07:34:43.741Z,80
2017-02-16T07:35:43.245Z,80
2017-02-16T07:36:43.262Z,85
2017-02-16T07:37:43.668Z,85
2017-02-16T07:38:43.609Z,85
2017-02-16T07:39:43.613Z,85
2017-02-16T07:40:43.618Z,85
2017-02-16T07:41:42.775Z,85
2017-02-16T07:42:43.549Z,90
2017-02-16T07:43:43.553Z,90
2017-02-16T07:44:43.548Z,90
2017-02-16T07:45:43.514Z,90
2017-02-16T07:46:43.529Z,90
2017-02-16T07:47:43.474Z,90
2017-02-16T07:48:43.073Z,90
2017-02-16T07:49:43.058Z,90
2017-02-16T07:50:43.473Z,90
2017-02-16T07:51:43.448Z,95
2017-02-16T07:52:43.388Z,95
2017-02-16T07:53:43.367Z,95
2017-02-16T07:54:43.368Z,95
2017-02-16T07:55:43.356Z,95
2017-02-16T07:56:43.323Z,95
2017-02-16T07:57:42.559Z,95
2017-02-16T07:58:43.319Z,100
2017-02-16T07:59:43.299Z,100
2017-02-16T08:00:43.297Z,100
2017-02-16T08:01:42.870Z,100
2017-02-16T08:02:43.245Z,100
2017-02-16T08:03:43.212Z,100
2017-02-16T08:04:42.835Z,100
2017-02-16T08:05:43.178Z,100
2017-02-16T08:06:43.186Z,100
2017-02-16T08:07:43.184Z,105
2017-02-16T08:08:42.334Z,105
2017-02-16T08:09:42.752Z,105
2017-02-16T08:10:42.740Z,105
2017-02-16T08:11:43.105Z,105
2017-02-16T08:12:42.701Z,105
2017-02-16T08:13:43.100Z,110
2017-02-16T08:14:43.074Z,110
2017-02-16T08:15:43.068Z,110
2017-02-16T08:16:43.032Z,110
2017-02-16T08:17:42.995Z,110
2017-02-16T08:18:43.001Z,110
2017-02-16T08:19:42.991Z,110
2017-02-16T08:20:42.974Z,110
2017-02-16T08:21:42.977Z,110
2017-02-16T08:22:42.933Z,115
2017-02-16T08:23:42.924Z,115
2017-02-16T08:24:42.921Z,115
2017-02-16T08:25:42.523Z,115
2017-02-16T08:26:42.886Z,115
2017-02-16T08:27:42.865Z,115
2017-02-16T08:28:42.876Z,115
2017-02-16T08:29:42.449Z,115
2017-02-16T08:30:42.413Z,115
2017-02-16T08:31:42.785Z,115
2017-02-16T08:32:42.780Z,115
2017-02-16T08:33:42.376Z,115
2017-02-16T08:34:42.763Z,115
2017-02-16T08:35:42.749Z,120
2017-02-16T08:36:42.366Z,120
2017-02-16T08:37:42.752Z,120
2017-02-16T08:38:42.703Z,120
2017-02-16T08:39:42.711Z,120
2017-02-16T08:40:42.672Z,120
2017-02-16T08:41:42.667Z,120
2017-02-16T08:42:42.630Z,120
2017-02-16T08:43:42.633Z,120
2017-02-16T08:44:42.218Z,120
2017-02-16T08:45:42.603Z,120
2017-02-16T08:46:41.788Z,120
2017-02-16T08:47:42.607Z,125
2017-02-16T08:48:42.563Z,125
2017-02-16T08:49:42.542Z,125
2017-02-16T08:50:42.576Z,125
2017-02-16T08:51:42.129Z,125
2017-02-16T08:52:42.505Z,125
2017-02-16T08:53:42.499Z,125
2017-02-16T08:54:42.062Z,125
2017-02-16T08:55:42.435Z,125
2017-02-16T08:56:42.064Z,125
2017-02-16T08:57:42.436Z,130
2017-02-16T08:58:42.431Z,130
2017-02-16T08:59:42.016Z,130
2017-02-16T09:00:42.399Z,130
2017-02-16T09:01:41.549Z,130
2017-02-16T09:02:42.389Z,130
2017-02-16T09:03:42.374Z,130
2017-02-16T09:04:42.357Z,135
2017-02-16T09:05:42.309Z,135
2017-02-16T09:06:42.339Z,135
2017-02-16T09:07:42.329Z,135
2017-02-16T09:08:42.296Z,135
2017-02-16T09:09:42.257Z,135
2017-02-16T09:10:42.252Z,135
2017-02-16T09:11:42.266Z,140
2017-02-16T09:12:42.252Z,140
2017-02-16T09:13:42.241Z,140
2017-02-16T09:14:42.253Z,140
2017-02-16T09:15:42.192Z,140
2017-02-16T09:16:42.185Z,140
2017-02-16T09:17:42.182Z,140
2017-02-16T09:18:42.178Z,140
2017-02-16T09:19:42.151Z,140
2017-02-16T09:20:42.127Z,140
2017-02-16T09:21:42.151Z,140
2017-02-16T09:22:42.112Z,140
2017-02-16T09:23:42.084Z,140
2017-02-16T09:24:42.077Z,140
2017-02-16T09:25:42.101Z,140
2017-02-16T09:26:42.037Z,140
2017-02-16T09:27:42.097Z,140
2017-02-16T09:28:42.035Z,140
2017-02-16T09:29:42.070Z,140
2017-02-16T09:30:42.038Z,140
2017-02-16T09:31:42.004Z,145
2017-02-16T09:32:41.602Z,145
2017-02-16T09:33:41.587Z,145
2017-02-16T09:34:41.570Z,145
2017-02-16T09:35:41.975Z,145
2017-02-16T09:36:41.559Z,145
2017-02-16T09:37:41.515Z,140
2017-02-16T09:38:41.124Z,140
2017-02-16T09:39:41.919Z,140
2017-02-16T09:40:41.890Z,140
2017-02-16T09:41:41.889Z,140
2017-02-16T09:42:41.896Z,140
2017-02-16T09:43:41.872Z,140
2017-02-16T09:44:41.859Z,140
2017-02-16T09:45:41.858Z,140
2017-02-16T09:46:41.832Z,140
2017-02-16T09:47:41.031Z,140
2017-02-16T09:48:41.789Z,145
2017-02-16T09:49:41.812Z,140
2017-02-16T09:50:41.814Z,140
2017-02-16T09:51:41.759Z,145
2017-02-16T09:52:41.793Z,145
2017-02-16T09:53:41.339Z,145
2017-02-16T09:54:41.760Z,145
2017-02-16T09:55:41.327Z,145
2017-02-16T09:56:41.748Z,145
2017-02-16T09:57:41.720Z,145
2017-02-16T09:58:41.703Z,140
2017-02-16T09:59:41.657Z,140
2017-02-16T10:00:41.699Z,140
2017-02-16T10:01:41.669Z,140
2017-02-16T10:02:41.233Z,140
2017-02-16T10:03:41.227Z,140
2017-02-16T10:04:41.669Z,140
2017-02-16T10:05:41.617Z,140
2017-02-16T10:06:41.666Z,140
2017-02-16T10:07:41.223Z,140
2017-02-16T10:08:41.613Z,140
2017-02-16T10:09:41.163Z,145
2017-02-16T10:10:41.606Z,145
2017-02-16T10:11:41.547Z,145
2017-02-16T10:12:41.150Z,145
2017-02-16T10:13:40.752Z,145
2017-02-16T10:14:41.106Z,145
2017-02-16T10:15:41.141Z,145
2017-02-16T10:16:41.107Z,145
2017-02-16T10:17:41.104Z,145
2017-02-16T10:18:41.492Z,145
2017-02-16T10:19:41.090Z,145
2017-02-16T10:20:41.056Z,145
2017-02-16T10:21:41.050Z,150
2017-02-16T10:23:19.606Z,150
2017-02-16T10:23:41.101Z,150
2017-02-16T10:24:41.019Z,155
2017-02-16T10:25:41.424Z,155
2017-02-16T10:26:41.401Z,155
2017-02-16T10:27:40.989Z,160
2017-02-16T10:28:41.401Z,160
2017-02-16T10:29:41.373Z,160
2017-02-16T10:30:41.358Z,160
2017-02-16T10:31:41.362Z,160
2017-02-16T10:32:40.911Z,160
2017-02-16T10:33:41.328Z,165
2017-02-16T10:34:40.936Z,160
2017-02-16T10:35:41.317Z,160
2017-02-16T10:36:41.296Z,160
2017-02-16T10:37:41.261Z,160
2017-02-16T10:38:41.283Z,160
2017-02-16T10:39:41.237Z,160
2017-02-16T10:40:41.305Z,160
2017-02-16T10:41:40.852Z,160
2017-02-16T10:42:40.834Z,160
2017-02-16T10:43:41.212Z,160
2017-02-16T10:44:41.238Z,160
2017-02-16T10:45:41.202Z,160
2017-02-16T10:46:41.228Z,160
2017-02-16T10:47:41.203Z,160
2017-02-16T10:48:41.170Z,160
2017-02-16T10:49:41.161Z,160
2017-02-16T10:50:40.747Z,160
2017-02-16T10:51:40.723Z,160
2017-02-16T10:52:40.743Z,160
2017-02-16T10:53:41.132Z,160
2017-02-16T10:54:41.107Z,160
2017-02-16T10:55:41.136Z,160
2017-02-16T10:56:41.145Z,160
2017-02-16T10:57:41.079Z,160
2017-02-16T10:58:41.110Z,160
2017-02-16T10:59:41.079Z,160
2017-02-16T11:00:40.268Z,160
2017-02-16T11:01:40.657Z,165
2017-02-16T11:02:41.067Z,165
2017-02-16T11:03:40.626Z,165
2017-02-16T11:04:41.034Z,165
2017-02-16T11:05:41.015Z,165
2017-02-16T11:06:41.026Z,165
2017-02-16T11:07:40.602Z,170
2017-02-16T11:08:40.983Z,170
2017-02-16T11:09:40.999Z,170
2017-02-16T11:10:40.583Z,175
2017-02-16T11:11:40.939Z,175
2017-02-16T11:12:40.935Z,175
2017-02-16T11:13:40.555Z,170
2017-02-16T11:14:40.944Z,175
2017-02-16T11:15:40.912Z,135
2017-02-16T11:16:40.884Z,135
2017-02-16T11:17:40.521Z,170
2017-02-16T11:18:40.877Z,155
2017-02-16T11:19:40.494Z,150
2017-02-16T11:20:40.477Z,175
2017-02-16T11:21:40.483Z,180
2017-02-16T11:22:40.867Z,165
2017-02-16T11:23:40.850Z,180
2017-02-16T11:24:40.857Z,155
2017-02-16T11:25:40.850Z,170
2017-02-16T11:26:40.820Z,185
2017-02-16T11:27:40.803Z,185
2017-02-16T11:28:40.798Z,185
2017-02-16T11:29:41.728Z,180
2017-02-16T11:30:40.776Z,150
2017-02-16T11:31:40.783Z,145
2017-02-16T11:32:40.768Z,145
2017-02-16T11:33:40.781Z,150
2017-02-16T11:34:40.750Z,155
2017-02-16T11:35:40.751Z,155
2017-02-16T11:36:40.789Z,140
2017-02-16T11:37:40.754Z,155
2017-02-16T11:38:40.711Z,165
2017-02-16T11:39:40.705Z,140
2017-02-16T11:40:40.728Z,165
2017-02-16T11:41:40.712Z,145
2017-02-16T11:42:40.697Z,135
2017-02-16T11:43:40.658Z,135
2017-02-16T11:44:40.720Z,135
2017-02-16T11:45:40.649Z,140
2017-02-16T11:46:40.639Z,140
2017-02-16T11:47:40.658Z,150
2017-02-16T11:48:40.660Z,160
2017-02-16T11:49:40.609Z,160
2017-02-16T11:50:40.619Z,160
2017-02-16T11:51:40.581Z,160
2017-02-16T11:52:40.580Z,155
2017-02-16T11:53:40.161Z,155
2017-02-16T11:54:40.569Z,155
2017-02-16T11:55:40.533Z,155
2017-02-16T11:56:40.575Z,155
2017-02-16T11:57:40.519Z,155
2017-02-16T11:58:40.524Z,155
2017-02-16T11:59:40.538Z,155
2017-02-16T12:00:40.481Z,150
2017-02-16T12:01:40.507Z,150
2017-02-16T12:02:40.534Z,150
2017-02-16T12:03:40.518Z,150
2017-02-16T12:04:40.442Z,150
2017-02-16T12:05:40.496Z,150
2017-02-16T12:06:40.472Z,150
2017-02-16T12:07:40.063Z,145
2017-02-16T12:08:40.460Z,145
2017-02-16T12:09:40.062Z,145
2017-02-16T12:10:40.045Z,145
2017-02-16T12:11:40.421Z,145
2017-02-16T12:12:40.372Z,145
2017-02-16T12:13:40.401Z,145
2017-02-16T12:14:40.389Z,145
2017-02-16T12:15:40.400Z,145
2017-02-16T12:16:40.380Z,150
2017-02-16T12:17:40.388Z,145
2017-02-16T12:18:40.371Z,145
2017-02-16T12:19:40.329Z,145
2017-02-16T12:20:40.381Z,145
2017-02-16T12:21:39.917Z,145
2017-02-16T12:22:40.324Z,140
2017-02-16T12:23:40.319Z,140
2017-02-16T12:24:40.286Z,140
2017-02-16T12:25:40.291Z,140
2017-02-16T12:26:40.286Z,140
2017-02-16T12:27:40.309Z,140
2017-02-16T12:28:39.866Z,135
2017-02-16T12:29:40.332Z,135
2017-02-16T12:30:39.864Z,135
2017-02-16T12:31:40.257Z,135
2017-02-16T12:32:40.237Z,135
2017-02-16T12:33:40.250Z,135
2017-02-16T12:34:39.822Z,135
2017-02-16T12:35:40.202Z,130
2017-02-16T12:36:40.190Z,130
2017-02-16T12:37:40.198Z,135
2017-02-16T12:38:40.213Z,135
2017-02-16T12:39:40.175Z,135
2017-02-16T12:40:40.165Z,135
2017-02-16T12:41:39.773Z,130
2017-02-16T12:42:40.140Z,135
2017-02-16T12:43:40.146Z,130
2017-02-16T12:44:40.126Z,135
2017-02-16T12:45:40.121Z,135
2017-02-16T12:46:40.120Z,135
2017-02-16T12:47:40.098Z,130
2017-02-16T12:48:39.690Z,135
2017-02-16T12:49:40.089Z,130
2017-02-16T12:50:39.692Z,130
2017-02-16T12:51:40.081Z,130
2017-02-16T12:52:40.040Z,130
2017-02-16T12:53:40.061Z,130
2017-02-16T12:54:40.033Z,125
2017-02-16T12:55:40.037Z,130
2017-02-16T12:56:39.624Z,130
2017-02-16T12:57:40.019Z,125
2017-02-16T12:58:39.586Z,125
2017-02-16T12:59:40.000Z,130
2017-02-16T13:00:39.597Z,130
2017-02-16T13:01:39.963Z,130
2017-02-16T13:02:39.954Z,125
2017-02-16T13:03:38.774Z,125
2017-02-16T13:04:39.952Z,120
2017-02-16T13:05:39.949Z,125
2017-02-16T13:06:39.965Z,125
2017-02-16T13:07:39.917Z,125
2017-02-16T13:08:39.888Z,125
2017-02-16T13:09:39.916Z,130
2017-02-16T13:10:39.481Z,135
2017-02-16T13:11:39.909Z,135
2017-02-16T13:12:39.886Z,135
2017-02-16T13:13:39.897Z,140
2017-02-16T13:14:39.459Z,140
2017-02-16T13:15:39.886Z,145
2017-02-16T13:16:39.454Z,155
2017-02-16T13:17:39.832Z,155
2017-02-16T13:18:39.821Z,160
2017-02-16T13:19:39.861Z,160
2017-02-16T13:20:39.837Z,160
2017-02-16T13:21:39.809Z,160
2017-02-16T13:22:39.773Z,160
2017-02-16T13:23:39.784Z,160
2017-02-16T13:24:39.811Z,160
2017-02-16T13:25:39.747Z,165
2017-02-16T13:26:39.763Z,155
2017-02-16T13:27:39.728Z,150
2017-02-16T13:28:39.728Z,150
2017-02-16T13:29:39.721Z,160
2017-02-16T13:30:39.718Z,150
2017-02-16T13:31:39.700Z,150
2017-02-16T13:32:39.681Z,140
2017-02-16T13:33:39.709Z,135
2017-02-16T13:34:39.680Z,130
2017-02-16T13:35:39.683Z,130
2017-02-16T13:36:39.316Z,135
2017-02-16T13:37:39.661Z,130
2017-02-16T13:38:39.236Z,130
2017-02-16T13:39:39.642Z,130
2017-02-16T13:40:39.219Z,130
2017-02-16T13:41:39.590Z,130
2017-02-16T13:42:39.599Z,130
2017-02-16T13:43:39.626Z,130
2017-02-16T13:44:39.185Z,125
2017-02-16T13:45:39.177Z,130
2017-02-16T13:46:39.180Z,130
2017-02-16T13:47:39.589Z,130
2017-02-16T13:48:39.546Z,135
2017-02-16T13:49:39.546Z,135
2017-02-16T13:50:39.525Z,135
2017-02-16T13:51:39.546Z,145
2017-02-16T13:52:39.514Z,145
2017-02-16T13:53:39.511Z,150
2017-02-16T13:54:39.081Z,160
2017-02-16T13:55:39.527Z,170
2017-02-16T13:56:39.454Z,175
2017-02-16T13:57:39.479Z,180
2017-02-16T13:58:39.459Z,190
2017-02-16T13:59:39.095Z,180
2017-02-16T14:00:39.042Z,175
2017-02-16T14:01:39.038Z,175
2017-02-16T14:02:39.403Z,195
2017-02-16T14:03:39.036Z,200
2017-02-16T14:04:39.415Z,195
2017-02-16T14:05:39.376Z,200
2017-02-16T14:06:39.405Z,210
2017-02-16T14:07:38.995Z,200
2017-02-16T14:08:39.366Z,205
2017-02-16T14:09:39.359Z,195
2017-02-16T14:10:38.942Z,195
2017-02-16T14:11:39.388Z,185
2017-02-16T14:12:39.358Z,175
2017-02-16T14:13:39.316Z,170
2017-02-16T14:14:39.331Z,175
2017-02-16T14:15:39.304Z,175